KIWD/IWD METAR and TAF weather

Enter ICAO airport designator
Station Type Date Time Source
KIWD METAR 2018/12/10 08:56 UTC NOAA

KIWD 100856Z AUTO 22009KT 7SM CLR M08/M09 A3012 RMK AO2 SLP219 6//// T10831094 58011 FZRANO PNO $


Station Type Date Time Source
KIWD Decoded METAR 2018/12/10 08:56 UTC NOAA

Ironwood, Gogebic-Iron County Airport, MI, United States (KIWD) 46-32N 090-08W
Dec 10, 2018 - 03:56 AM EST / 2018.12.10 0856 UTC
Wind: from the SW (220 degrees) at 10 MPH (9 KT):0
Visibility: 7 mile(s):0
Sky conditions: clear
Temperature: 17.1 F (-8.3 C)
Windchill: 5 F (-15 C):1
Dew Point: 15.1 F (-9.4 C)
Relative Humidity: 91%
Pressure (altimeter): 30.12 in. Hg (1019 hPa)
Pressure tendency: 0.03 inches (1.1 hPa) lower than three hours ago
ob: KIWD 100856Z AUTO 22009KT 7SM CLR M08/M09 A3012 RMK AO2 SLP219 6//// T10831094 58011 FZRANO PNO
cycle: 9

Station Type Date Time Source
KIWD TAF 2018/12/10 06:24 UTC NOAA

TAF KIWD 100522Z 1006/1106 23007KT P6SM SKC
FM101900 23009KT P6SM SCT200
FM110500 27006KT P6SM SCT030


Example: see airport list